sensor_id;sensor_type;location;lat;lon;timestamp;pressure;altitude;pressure_sealevel;temperature
68743;BMP180;55725;42.758;26.702;2023-02-01T00:01:17;99103.00;;;0.30
68743;BMP180;55725;42.758;26.702;2023-02-01T00:02:58;99098.00;;;0.40
68743;BMP180;55725;42.758;26.702;2023-02-01T00:04:38;99111.00;;;0.40
68743;BMP180;55725;42.758;26.702;2023-02-01T00:06:18;99100.00;;;0.50
68743;BMP180;55725;42.758;26.702;2023-02-01T00:07:59;99108.00;;;0.50
68743;BMP180;55725;42.758;26.702;2023-02-01T00:09:39;99114.00;;;0.60
68743;BMP180;55725;42.758;26.702;2023-02-01T00:11:20;99114.00;;;0.60
68743;BMP180;55725;42.758;26.702;2023-02-01T00:13:00;99118.00;;;0.60
68743;BMP180;55725;42.758;26.702;2023-02-01T00:14:40;99118.00;;;0.70
68743;BMP180;55725;42.758;26.702;2023-02-01T00:16:22;99117.00;;;1.00
68743;BMP180;55725;42.758;26.702;2023-02-01T00:18:02;99123.00;;;1.10
68743;BMP180;55725;42.758;26.702;2023-02-01T00:19:43;99121.00;;;1.10
68743;BMP180;55725;42.758;26.702;2023-02-01T00:21:23;99121.00;;;1.00
68743;BMP180;55725;42.758;26.702;2023-02-01T00:23:03;99124.00;;;1.00
68743;BMP180;55725;42.758;26.702;2023-02-01T00:24:44;99122.00;;;0.80
68743;BMP180;55725;42.758;26.702;2023-02-01T00:26:30;99124.00;;;0.90
68743;BMP180;55725;42.758;26.702;2023-02-01T00:28:10;99121.00;;;0.70
68743;BMP180;55725;42.758;26.702;2023-02-01T00:29:54;99123.00;;;0.70
68743;BMP180;55725;42.758;26.702;2023-02-01T00:31:34;99131.00;;;0.80
68743;BMP180;55725;42.758;26.702;2023-02-01T00:33:14;99132.00;;;1.00
68743;BMP180;55725;42.758;26.702;2023-02-01T00:34:55;99130.00;;;0.90
68743;BMP180;55725;42.758;26.702;2023-02-01T00:36:35;99128.00;;;1.00
68743;BMP180;55725;42.758;26.702;2023-02-01T00:38:15;99128.00;;;0.90
68743;BMP180;55725;42.758;26.702;2023-02-01T00:39:55;99131.00;;;0.90
68743;BMP180;55725;42.758;26.702;2023-02-01T00:41:36;99136.00;;;0.80
68743;BMP180;55725;42.758;26.702;2023-02-01T00:43:16;99133.00;;;0.90
68743;BMP180;55725;42.758;26.702;2023-02-01T00:44:56;99135.00;;;0.90
68743;BMP180;55725;42.758;26.702;2023-02-01T00:46:37;99132.00;;;0.90
68743;BMP180;55725;42.758;26.702;2023-02-01T00:48:17;99140.00;;;0.80
68743;BMP180;55725;42.758;26.702;2023-02-01T00:49:57;99146.00;;;1.00
68743;BMP180;55725;42.758;26.702;2023-02-01T00:51:37;99145.00;;;1.10
68743;BMP180;55725;42.758;26.702;2023-02-01T00:53:18;99139.00;;;1.10
68743;BMP180;55725;42.758;26.702;2023-02-01T00:54:58;99147.00;;;1.10
68743;BMP180;55725;42.758;26.702;2023-02-01T00:56:38;99143.00;;;1.10
68743;BMP180;55725;42.758;26.702;2023-02-01T00:58:19;99135.00;;;1.30
68743;BMP180;55725;42.758;26.702;2023-02-01T00:59:59;99138.00;;;1.20
68743;BMP180;55725;42.758;26.702;2023-02-01T01:01:39;99143.00;;;1.40
68743;BMP180;55725;42.758;26.702;2023-02-01T01:03:20;99139.00;;;1.20
68743;BMP180;55725;42.758;26.702;2023-02-01T01:05:00;99134.00;;;1.10
68743;BMP180;55725;42.758;26.702;2023-02-01T01:06:40;99144.00;;;1.30
68743;BMP180;55725;42.758;26.702;2023-02-01T01:08:20;99140.00;;;1.20
68743;BMP180;55725;42.758;26.702;2023-02-01T01:10:01;99138.00;;;1.30
68743;BMP180;55725;42.758;26.702;2023-02-01T01:11:41;99139.00;;;0.80
68743;BMP180;55725;42.758;26.702;2023-02-01T01:13:21;99137.00;;;0.90
68743;BMP180;55725;42.758;26.702;2023-02-01T01:15:02;99132.00;;;0.90
68743;BMP180;55725;42.758;26.702;2023-02-01T01:16:42;99129.00;;;1.10
68743;BMP180;55725;42.758;26.702;2023-02-01T01:18:22;99136.00;;;1.00
68743;BMP180;55725;42.758;26.702;2023-02-01T01:20:03;99133.00;;;0.90
68743;BMP180;55725;42.758;26.702;2023-02-01T01:21:44;99124.00;;;0.70
68743;BMP180;55725;42.758;26.702;2023-02-01T01:23:24;99125.00;;;0.70
68743;BMP180;55725;42.758;26.702;2023-02-01T01:25:04;99126.00;;;0.70
68743;BMP180;55725;42.758;26.702;2023-02-01T01:26:45;99122.00;;;0.90
68743;BMP180;55725;42.758;26.702;2023-02-01T01:28:25;99123.00;;;0.80
68743;BMP180;55725;42.758;26.702;2023-02-01T01:30:06;99124.00;;;0.70
68743;BMP180;55725;42.758;26.702;2023-02-01T01:31:47;99120.00;;;0.80
68743;BMP180;55725;42.758;26.702;2023-02-01T01:33:27;99110.00;;;0.80
68743;BMP180;55725;42.758;26.702;2023-02-01T01:35:08;99117.00;;;0.80
68743;BMP180;55725;42.758;26.702;2023-02-01T01:36:48;99118.00;;;0.90
68743;BMP180;55725;42.758;26.702;2023-02-01T01:38:28;99120.00;;;1.10
68743;BMP180;55725;42.758;26.702;2023-02-01T01:40:09;99123.00;;;1.10
68743;BMP180;55725;42.758;26.702;2023-02-01T01:41:49;99117.00;;;1.10
68743;BMP180;55725;42.758;26.702;2023-02-01T01:43:49;99118.00;;;1.30
68743;BMP180;55725;42.758;26.702;2023-02-01T01:45:31;99116.00;;;1.60
68743;BMP180;55725;42.758;26.702;2023-02-01T01:47:11;99112.00;;;1.50
68743;BMP180;55725;42.758;26.702;2023-02-01T01:48:54;99112.00;;;1.50
68743;BMP180;55725;42.758;26.702;2023-02-01T01:50:38;99109.00;;;1.60
68743;BMP180;55725;42.758;26.702;2023-02-01T01:52:19;99123.00;;;1.50
68743;BMP180;55725;42.758;26.702;2023-02-01T01:55:52;99121.00;;;1.50
68743;BMP180;55725;42.758;26.702;2023-02-01T01:57:35;99127.00;;;1.60
68743;BMP180;55725;42.758;26.702;2023-02-01T01:59:16;99125.00;;;1.70
68743;BMP180;55725;42.758;26.702;2023-02-01T02:00:57;99127.00;;;1.50
68743;BMP180;55725;42.758;26.702;2023-02-01T02:02:38;99132.00;;;1.70
68743;BMP180;55725;42.758;26.702;2023-02-01T02:04:19;99125.00;;;1.50
68743;BMP180;55725;42.758;26.702;2023-02-01T02:06:00;99122.00;;;1.60
68743;BMP180;55725;42.758;26.702;2023-02-01T02:07:42;99128.00;;;1.60
68743;BMP180;55725;42.758;26.702;2023-02-01T02:09:25;99118.00;;;1.50
68743;BMP180;55725;42.758;26.702;2023-02-01T02:11:05;99122.00;;;1.60
68743;BMP180;55725;42.758;26.702;2023-02-01T02:12:46;99116.00;;;1.50
68743;BMP180;55725;42.758;26.702;2023-02-01T02:14:28;99114.00;;;1.60
68743;BMP180;55725;42.758;26.702;2023-02-01T02:18:05;99112.00;;;1.50
68743;BMP180;55725;42.758;26.702;2023-02-01T02:21:49;99117.00;;;1.30
68743;BMP180;55725;42.758;26.702;2023-02-01T02:34:57;99129.00;;;1.20
68743;BMP180;55725;42.758;26.702;2023-02-01T02:40:41;99133.00;;;1.00
68743;BMP180;55725;42.758;26.702;2023-02-01T02:46:38;99125.00;;;0.70
68743;BMP180;55725;42.758;26.702;2023-02-01T02:48:43;99127.00;;;0.70
68743;BMP180;55725;42.758;26.702;2023-02-01T02:50:49;99127.00;;;0.70
68743;BMP180;55725;42.758;26.702;2023-02-01T02:52:46;99128.00;;;1.00
68743;BMP180;55725;42.758;26.702;2023-02-01T02:54:50;99125.00;;;1.00
68743;BMP180;55725;42.758;26.702;2023-02-01T02:56:32;99127.00;;;1.10
68743;BMP180;55725;42.758;26.702;2023-02-01T02:58:31;99127.00;;;1.00
68743;BMP180;55725;42.758;26.702;2023-02-01T03:00:31;99127.00;;;1.00
68743;BMP180;55725;42.758;26.702;2023-02-01T03:02:31;99129.00;;;1.00
68743;BMP180;55725;42.758;26.702;2023-02-01T03:04:30;99124.00;;;1.00
68743;BMP180;55725;42.758;26.702;2023-02-01T03:06:16;99119.00;;;1.00
68743;BMP180;55725;42.758;26.702;2023-02-01T03:09:42;99120.00;;;1.10
68743;BMP180;55725;42.758;26.702;2023-02-01T03:11:24;99123.00;;;1.10
68743;BMP180;55725;42.758;26.702;2023-02-01T03:13:30;99123.00;;;1.00
68743;BMP180;55725;42.758;26.702;2023-02-01T03:15:12;99124.00;;;1.00
68743;BMP180;55725;42.758;26.702;2023-02-01T03:16:54;99124.00;;;1.00
68743;BMP180;55725;42.758;26.702;2023-02-01T03:20:19;99108.00;;;1.10
68743;BMP180;55725;42.758;26.702;2023-02-01T03:22:03;99105.00;;;1.10
68743;BMP180;55725;42.758;26.702;2023-02-01T03:23:44;99112.00;;;1.00
68743;BMP180;55725;42.758;26.702;2023-02-01T03:25:27;99112.00;;;1.10
68743;BMP180;55725;42.758;26.702;2023-02-01T03:27:10;99113.00;;;1.10
68743;BMP180;55725;42.758;26.702;2023-02-01T03:28:55;99110.00;;;1.20
68743;BMP180;55725;42.758;26.702;2023-02-01T03:30:37;99113.00;;;1.20
68743;BMP180;55725;42.758;26.702;2023-02-01T03:32:17;99110.00;;;1.10
68743;BMP180;55725;42.758;26.702;2023-02-01T03:33:58;99117.00;;;1.10
68743;BMP180;55725;42.758;26.702;2023-02-01T03:37:25;99130.00;;;1.00
68743;BMP180;55725;42.758;26.702;2023-02-01T03:39:16;99133.00;;;1.00
68743;BMP180;55725;42.758;26.702;2023-02-01T03:41:03;99132.00;;;1.00
68743;BMP180;55725;42.758;26.702;2023-02-01T03:42:45;99130.00;;;1.00
68743;BMP180;55725;42.758;26.702;2023-02-01T03:44:29;99145.00;;;1.00
68743;BMP180;55725;42.758;26.702;2023-02-01T03:46:12;99149.00;;;1.00
68743;BMP180;55725;42.758;26.702;2023-02-01T03:47:56;99159.00;;;1.10
68743;BMP180;55725;42.758;26.702;2023-02-01T03:49:41;99154.00;;;1.10
68743;BMP180;55725;42.758;26.702;2023-02-01T03:51:23;99151.00;;;1.20
68743;BMP180;55725;42.758;26.702;2023-02-01T03:53:05;99151.00;;;1.10
68743;BMP180;55725;42.758;26.702;2023-02-01T03:54:47;99147.00;;;1.20
68743;BMP180;55725;42.758;26.702;2023-02-01T03:56:28;99147.00;;;0.70
68743;BMP180;55725;42.758;26.702;2023-02-01T03:58:13;99155.00;;;1.00
68743;BMP180;55725;42.758;26.702;2023-02-01T03:59:54;99153.00;;;0.60
68743;BMP180;55725;42.758;26.702;2023-02-01T04:01:43;99149.00;;;0.70
68743;BMP180;55725;42.758;26.702;2023-02-01T04:03:24;99144.00;;;0.10
68743;BMP180;55725;42.758;26.702;2023-02-01T04:05:04;99150.00;;;-0.10
68743;BMP180;55725;42.758;26.702;2023-02-01T04:06:49;99154.00;;;-0.10
68743;BMP180;55725;42.758;26.702;2023-02-01T04:08:29;99156.00;;;-0.40
68743;BMP180;55725;42.758;26.702;2023-02-01T04:10:10;99153.00;;;-0.60
68743;BMP180;55725;42.758;26.702;2023-02-01T04:11:51;99162.00;;;-0.10
68743;BMP180;55725;42.758;26.702;2023-02-01T04:13:31;99173.00;;;0.40
68743;BMP180;55725;42.758;26.702;2023-02-01T04:15:11;99172.00;;;0.00
68743;BMP180;55725;42.758;26.702;2023-02-01T04:16:51;99180.00;;;0.30
68743;BMP180;55725;42.758;26.702;2023-02-01T04:18:32;99175.00;;;0.00
68743;BMP180;55725;42.758;26.702;2023-02-01T04:20:12;99176.00;;;-0.10
68743;BMP180;55725;42.758;26.702;2023-02-01T04:21:52;99184.00;;;-0.10
68743;BMP180;55725;42.758;26.702;2023-02-01T04:23:33;99191.00;;;-0.20
68743;BMP180;55725;42.758;26.702;2023-02-01T04:25:13;99194.00;;;-0.30
68743;BMP180;55725;42.758;26.702;2023-02-01T04:26:53;99201.00;;;-0.60
68743;BMP180;55725;42.758;26.702;2023-02-01T04:28:34;99195.00;;;-0.80
68743;BMP180;55725;42.758;26.702;2023-02-01T04:30:14;99198.00;;;-0.60
68743;BMP180;55725;42.758;26.702;2023-02-01T04:31:54;99194.00;;;-0.60
68743;BMP180;55725;42.758;26.702;2023-02-01T04:33:34;99199.00;;;-0.70
68743;BMP180;55725;42.758;26.702;2023-02-01T04:35:15;99194.00;;;-0.70
68743;BMP180;55725;42.758;26.702;2023-02-01T04:36:57;99193.00;;;-0.70
68743;BMP180;55725;42.758;26.702;2023-02-01T04:38:38;99198.00;;;-0.70
68743;BMP180;55725;42.758;26.702;2023-02-01T04:40:18;99202.00;;;-0.60
68743;BMP180;55725;42.758;26.702;2023-02-01T04:41:58;99196.00;;;-0.20
68743;BMP180;55725;42.758;26.702;2023-02-01T04:43:38;99196.00;;;-0.10
68743;BMP180;55725;42.758;26.702;2023-02-01T04:45:19;99187.00;;;-0.10
68743;BMP180;55725;42.758;26.702;2023-02-01T04:46:59;99195.00;;;0.00
68743;BMP180;55725;42.758;26.702;2023-02-01T04:48:39;99205.00;;;0.10
68743;BMP180;55725;42.758;26.702;2023-02-01T04:50:20;99195.00;;;-0.10
68743;BMP180;55725;42.758;26.702;2023-02-01T04:52:00;99205.00;;;0.20
68743;BMP180;55725;42.758;26.702;2023-02-01T04:53:41;99198.00;;;0.20
68743;BMP180;55725;42.758;26.702;2023-02-01T04:55:21;99205.00;;;0.60
68743;BMP180;55725;42.758;26.702;2023-02-01T04:57:01;99203.00;;;0.40
68743;BMP180;55725;42.758;26.702;2023-02-01T04:58:41;99205.00;;;0.30
68743;BMP180;55725;42.758;26.702;2023-02-01T05:00:22;99209.00;;;0.40
68743;BMP180;55725;42.758;26.702;2023-02-01T05:02:02;99209.00;;;0.30
68743;BMP180;55725;42.758;26.702;2023-02-01T05:03:42;99213.00;;;0.40
68743;BMP180;55725;42.758;26.702;2023-02-01T05:05:23;99215.00;;;0.50
68743;BMP180;55725;42.758;26.702;2023-02-01T05:07:03;99225.00;;;0.70
68743;BMP180;55725;42.758;26.702;2023-02-01T05:08:44;99213.00;;;0.50
68743;BMP180;55725;42.758;26.702;2023-02-01T05:10:24;99218.00;;;0.50
68743;BMP180;55725;42.758;26.702;2023-02-01T05:12:04;99216.00;;;0.60
68743;BMP180;55725;42.758;26.702;2023-02-01T05:14:03;99225.00;;;0.60
68743;BMP180;55725;42.758;26.702;2023-02-01T05:15:44;99220.00;;;0.50
68743;BMP180;55725;42.758;26.702;2023-02-01T05:17:26;99231.00;;;0.50
68743;BMP180;55725;42.758;26.702;2023-02-01T05:19:06;99225.00;;;0.40
68743;BMP180;55725;42.758;26.702;2023-02-01T05:20:46;99227.00;;;0.30
68743;BMP180;55725;42.758;26.702;2023-02-01T05:22:26;99232.00;;;0.20
68743;BMP180;55725;42.758;26.702;2023-02-01T05:24:07;99233.00;;;0.90
68743;BMP180;55725;42.758;26.702;2023-02-01T05:25:57;99229.00;;;0.80
68743;BMP180;55725;42.758;26.702;2023-02-01T05:27:37;99233.00;;;0.60
68743;BMP180;55725;42.758;26.702;2023-02-01T05:29:18;99228.00;;;0.40
68743;BMP180;55725;42.758;26.702;2023-02-01T05:30:58;99233.00;;;0.50
68743;BMP180;55725;42.758;26.702;2023-02-01T05:32:38;99233.00;;;0.70
68743;BMP180;55725;42.758;26.702;2023-02-01T05:34:19;99241.00;;;0.90
68743;BMP180;55725;42.758;26.702;2023-02-01T05:35:59;99237.00;;;1.00
68743;BMP180;55725;42.758;26.702;2023-02-01T05:37:39;99232.00;;;1.00
68743;BMP180;55725;42.758;26.702;2023-02-01T05:39:20;99250.00;;;1.00
68743;BMP180;55725;42.758;26.702;2023-02-01T05:41:00;99231.00;;;1.00
68743;BMP180;55725;42.758;26.702;2023-02-01T05:42:40;99247.00;;;1.10
68743;BMP180;55725;42.758;26.702;2023-02-01T05:44:21;99232.00;;;1.10
68743;BMP180;55725;42.758;26.702;2023-02-01T05:46:01;99230.00;;;1.10
68743;BMP180;55725;42.758;26.702;2023-02-01T05:47:41;99244.00;;;1.30
68743;BMP180;55725;42.758;26.702;2023-02-01T05:49:21;99235.00;;;1.40
68743;BMP180;55725;42.758;26.702;2023-02-01T05:51:02;99243.00;;;1.30
68743;BMP180;55725;42.758;26.702;2023-02-01T05:52:42;99232.00;;;1.30
68743;BMP180;55725;42.758;26.702;2023-02-01T05:54:22;99233.00;;;1.30
68743;BMP180;55725;42.758;26.702;2023-02-01T05:56:03;99225.00;;;1.40
68743;BMP180;55725;42.758;26.702;2023-02-01T05:57:43;99224.00;;;1.30
68743;BMP180;55725;42.758;26.702;2023-02-01T05:59:23;99232.00;;;1.40
68743;BMP180;55725;42.758;26.702;2023-02-01T06:01:04;99234.00;;;1.30
68743;BMP180;55725;42.758;26.702;2023-02-01T06:02:44;99234.00;;;1.30
68743;BMP180;55725;42.758;26.702;2023-02-01T06:04:25;99241.00;;;1.40
68743;BMP180;55725;42.758;26.702;2023-02-01T06:06:05;99233.00;;;1.10
68743;BMP180;55725;42.758;26.702;2023-02-01T06:07:45;99237.00;;;1.10
68743;BMP180;55725;42.758;26.702;2023-02-01T06:09:26;99241.00;;;1.30
68743;BMP180;55725;42.758;26.702;2023-02-01T06:11:08;99245.00;;;1.40
68743;BMP180;55725;42.758;26.702;2023-02-01T06:12:48;99231.00;;;1.60
68743;BMP180;55725;42.758;26.702;2023-02-01T06:14:28;99236.00;;;1.70
68743;BMP180;55725;42.758;26.702;2023-02-01T06:16:09;99240.00;;;1.70
68743;BMP180;55725;42.758;26.702;2023-02-01T06:17:49;99239.00;;;1.40
68743;BMP180;55725;42.758;26.702;2023-02-01T06:19:29;99245.00;;;1.60
68743;BMP180;55725;42.758;26.702;2023-02-01T06:21:10;99245.00;;;1.60
68743;BMP180;55725;42.758;26.702;2023-02-01T06:22:50;99245.00;;;1.60
68743;BMP180;55725;42.758;26.702;2023-02-01T06:24:32;99235.00;;;1.70
68743;BMP180;55725;42.758;26.702;2023-02-01T06:26:12;99235.00;;;1.70
68743;BMP180;55725;42.758;26.702;2023-02-01T06:27:53;99234.00;;;1.70
68743;BMP180;55725;42.758;26.702;2023-02-01T06:29:33;99230.00;;;1.80
68743;BMP180;55725;42.758;26.702;2023-02-01T06:31:13;99237.00;;;2.00
68743;BMP180;55725;42.758;26.702;2023-02-01T06:32:54;99244.00;;;2.00
68743;BMP180;55725;42.758;26.702;2023-02-01T06:34:34;99246.00;;;2.00
68743;BMP180;55725;42.758;26.702;2023-02-01T06:36:14;99241.00;;;2.00
68743;BMP180;55725;42.758;26.702;2023-02-01T06:38:00;99231.00;;;1.80
68743;BMP180;55725;42.758;26.702;2023-02-01T06:39:41;99233.00;;;1.90
68743;BMP180;55725;42.758;26.702;2023-02-01T06:41:21;99245.00;;;2.00
68743;BMP180;55725;42.758;26.702;2023-02-01T06:43:01;99237.00;;;2.00
68743;BMP180;55725;42.758;26.702;2023-02-01T06:44:41;99246.00;;;2.00
68743;BMP180;55725;42.758;26.702;2023-02-01T06:46:22;99249.00;;;2.00
68743;BMP180;55725;42.758;26.702;2023-02-01T06:48:02;99230.00;;;2.20
68743;BMP180;55725;42.758;26.702;2023-02-01T06:49:42;99229.00;;;2.20
68743;BMP180;55725;42.758;26.702;2023-02-01T06:51:26;99233.00;;;2.20
68743;BMP180;55725;42.758;26.702;2023-02-01T06:53:07;99235.00;;;2.20
68743;BMP180;55725;42.758;26.702;2023-02-01T06:54:48;99215.00;;;2.30
68743;BMP180;55725;42.758;26.702;2023-02-01T06:56:28;99231.00;;;2.70
68743;BMP180;55725;42.758;26.702;2023-02-01T06:58:08;99174.00;;;2.50
68743;BMP180;55725;42.758;26.702;2023-02-01T06:59:49;99162.00;;;3.00
68743;BMP180;55725;42.758;26.702;2023-02-01T07:01:29;99243.00;;;3.10
68743;BMP180;55725;42.758;26.702;2023-02-01T07:03:09;99235.00;;;3.00
68743;BMP180;55725;42.758;26.702;2023-02-01T07:04:50;99250.00;;;2.80
68743;BMP180;55725;42.758;26.702;2023-02-01T07:06:30;99239.00;;;2.80
68743;BMP180;55725;42.758;26.702;2023-02-01T07:08:10;99230.00;;;2.80
68743;BMP180;55725;42.758;26.702;2023-02-01T07:09:51;99202.00;;;3.40
68743;BMP180;55725;42.758;26.702;2023-02-01T07:11:31;99181.00;;;3.80
68743;BMP180;55725;42.758;26.702;2023-02-01T07:13:12;99238.00;;;3.40
68743;BMP180;55725;42.758;26.702;2023-02-01T07:14:52;99185.00;;;3.30
68743;BMP180;55725;42.758;26.702;2023-02-01T07:16:32;99203.00;;;3.80
68743;BMP180;55725;42.758;26.702;2023-02-01T07:18:13;99244.00;;;3.50
68743;BMP180;55725;42.758;26.702;2023-02-01T07:19:54;99161.00;;;3.10
68743;BMP180;55725;42.758;26.702;2023-02-01T07:21:34;99145.00;;;3.70
68743;BMP180;55725;42.758;26.702;2023-02-01T07:23:15;99178.00;;;4.10
68743;BMP180;55725;42.758;26.702;2023-02-01T07:24:55;99154.00;;;4.00
68743;BMP180;55725;42.758;26.702;2023-02-01T07:26:35;99148.00;;;4.10
68743;BMP180;55725;42.758;26.702;2023-02-01T07:28:16;99142.00;;;4.80
68743;BMP180;55725;42.758;26.702;2023-02-01T07:29:56;99133.00;;;4.60
68743;BMP180;55725;42.758;26.702;2023-02-01T07:31:40;99147.00;;;5.00
68743;BMP180;55725;42.758;26.702;2023-02-01T07:33:21;99138.00;;;4.80
68743;BMP180;55725;42.758;26.702;2023-02-01T07:35:02;99147.00;;;4.90
68743;BMP180;55725;42.758;26.702;2023-02-01T07:36:42;99152.00;;;5.10
68743;BMP180;55725;42.758;26.702;2023-02-01T07:38:23;99151.00;;;4.90
68743;BMP180;55725;42.758;26.702;2023-02-01T07:40:03;99141.00;;;4.30
68743;BMP180;55725;42.758;26.702;2023-02-01T07:41:45;99153.00;;;5.00
68743;BMP180;55725;42.758;26.702;2023-02-01T07:43:26;99158.00;;;4.70
68743;BMP180;55725;42.758;26.702;2023-02-01T07:45:06;99145.00;;;5.00
68743;BMP180;55725;42.758;26.702;2023-02-01T07:46:47;99152.00;;;5.10
68743;BMP180;55725;42.758;26.702;2023-02-01T07:48:27;99157.00;;;5.10
68743;BMP180;55725;42.758;26.702;2023-02-01T07:50:07;99149.00;;;4.80
68743;BMP180;55725;42.758;26.702;2023-02-01T07:51:48;99168.00;;;4.50
68743;BMP180;55725;42.758;26.702;2023-02-01T07:53:29;99172.00;;;4.80
68743;BMP180;55725;42.758;26.702;2023-02-01T07:55:09;99267.00;;;5.10
68743;BMP180;55725;42.758;26.702;2023-02-01T07:56:49;99148.00;;;4.30
68743;BMP180;55725;42.758;26.702;2023-02-01T07:58:30;99272.00;;;4.70
68743;BMP180;55725;42.758;26.702;2023-02-01T08:00:10;99167.00;;;4.90
68743;BMP180;55725;42.758;26.702;2023-02-01T08:02:09;99152.00;;;4.80
68743;BMP180;55725;42.758;26.702;2023-02-01T08:03:56;99184.00;;;5.20
68743;BMP180;55725;42.758;26.702;2023-02-01T08:05:37;99157.00;;;5.00
68743;BMP180;55725;42.758;26.702;2023-02-01T08:07:17;99170.00;;;5.00
68743;BMP180;55725;42.758;26.702;2023-02-01T08:08:58;99167.00;;;4.60
68743;BMP180;55725;42.758;26.702;2023-02-01T08:10:41;99157.00;;;5.10
68743;BMP180;55725;42.758;26.702;2023-02-01T08:12:21;99148.00;;;5.40
68743;BMP180;55725;42.758;26.702;2023-02-01T08:14:01;99145.00;;;5.30
68743;BMP180;55725;42.758;26.702;2023-02-01T08:15:42;99141.00;;;5.50
68743;BMP180;55725;42.758;26.702;2023-02-01T08:17:22;99152.00;;;5.80
68743;BMP180;55725;42.758;26.702;2023-02-01T08:19:02;99147.00;;;5.50
68743;BMP180;55725;42.758;26.702;2023-02-01T08:20:43;99147.00;;;5.30
68743;BMP180;55725;42.758;26.702;2023-02-01T08:22:25;99145.00;;;5.30
68743;BMP180;55725;42.758;26.702;2023-02-01T08:24:06;99158.00;;;5.70
68743;BMP180;55725;42.758;26.702;2023-02-01T08:25:46;99155.00;;;5.80
68743;BMP180;55725;42.758;26.702;2023-02-01T08:27:27;99150.00;;;5.40
68743;BMP180;55725;42.758;26.702;2023-02-01T08:29:08;99150.00;;;5.70
68743;BMP180;55725;42.758;26.702;2023-02-01T08:30:48;99131.00;;;5.90
68743;BMP180;55725;42.758;26.702;2023-02-01T08:32:28;99143.00;;;5.70
68743;BMP180;55725;42.758;26.702;2023-02-01T08:34:09;99130.00;;;5.80
68743;BMP180;55725;42.758;26.702;2023-02-01T08:35:49;99131.00;;;6.00
68743;BMP180;55725;42.758;26.702;2023-02-01T08:37:29;99135.00;;;5.80
68743;BMP180;55725;42.758;26.702;2023-02-01T08:39:10;99133.00;;;6.40
68743;BMP180;55725;42.758;26.702;2023-02-01T08:40:50;99128.00;;;6.00
68743;BMP180;55725;42.758;26.702;2023-02-01T08:42:31;99131.00;;;6.10
68743;BMP180;55725;42.758;26.702;2023-02-01T08:44:30;99115.00;;;5.90
68743;BMP180;55725;42.758;26.702;2023-02-01T08:46:10;99114.00;;;5.70
68743;BMP180;55725;42.758;26.702;2023-02-01T08:47:51;99128.00;;;6.20
68743;BMP180;55725;42.758;26.702;2023-02-01T08:49:32;99121.00;;;6.30
68743;BMP180;55725;42.758;26.702;2023-02-01T08:51:13;99124.00;;;6.00
68743;BMP180;55725;42.758;26.702;2023-02-01T08:52:53;99105.00;;;5.80
68743;BMP180;55725;42.758;26.702;2023-02-01T08:54:34;99117.00;;;6.10
68743;BMP180;55725;42.758;26.702;2023-02-01T08:56:15;99096.00;;;6.80
68743;BMP180;55725;42.758;26.702;2023-02-01T08:57:55;99112.00;;;6.20
68743;BMP180;55725;42.758;26.702;2023-02-01T08:59:36;99100.00;;;6.30
68743;BMP180;55725;42.758;26.702;2023-02-01T09:01:16;99112.00;;;6.00
68743;BMP180;55725;42.758;26.702;2023-02-01T09:02:57;99111.00;;;6.70
68743;BMP180;55725;42.758;26.702;2023-02-01T09:04:37;99089.00;;;6.30
68743;BMP180;55725;42.758;26.702;2023-02-01T09:06:17;99093.00;;;6.00
68743;BMP180;55725;42.758;26.702;2023-02-01T09:07:58;99095.00;;;6.30
68743;BMP180;55725;42.758;26.702;2023-02-01T09:09:38;99096.00;;;6.20
68743;BMP180;55725;42.758;26.702;2023-02-01T09:11:19;99091.00;;;6.40
68743;BMP180;55725;42.758;26.702;2023-02-01T09:13:01;99094.00;;;6.30
68743;BMP180;55725;42.758;26.702;2023-02-01T09:14:43;99099.00;;;6.40
68743;BMP180;55725;42.758;26.702;2023-02-01T09:16:23;99085.00;;;6.50
68743;BMP180;55725;42.758;26.702;2023-02-01T09:18:03;99087.00;;;6.70
68743;BMP180;55725;42.758;26.702;2023-02-01T09:19:43;99083.00;;;6.30
68743;BMP180;55725;42.758;26.702;2023-02-01T09:21:24;99070.00;;;6.30
68743;BMP180;55725;42.758;26.702;2023-02-01T09:23:04;99084.00;;;6.50
68743;BMP180;55725;42.758;26.702;2023-02-01T09:24:46;99104.00;;;6.80
68743;BMP180;55725;42.758;26.702;2023-02-01T09:26:27;99094.00;;;7.00
68743;BMP180;55725;42.758;26.702;2023-02-01T09:28:07;99091.00;;;6.60
68743;BMP180;55725;42.758;26.702;2023-02-01T09:29:49;99072.00;;;6.60
68743;BMP180;55725;42.758;26.702;2023-02-01T09:31:32;99085.00;;;6.70
68743;BMP180;55725;42.758;26.702;2023-02-01T09:33:13;99069.00;;;6.50
68743;BMP180;55725;42.758;26.702;2023-02-01T09:34:53;99078.00;;;6.80
68743;BMP180;55725;42.758;26.702;2023-02-01T09:36:33;99078.00;;;6.80
68743;BMP180;55725;42.758;26.702;2023-02-01T09:38:14;99078.00;;;6.80
68743;BMP180;55725;42.758;26.702;2023-02-01T09:39:54;99067.00;;;7.00
68743;BMP180;55725;42.758;26.702;2023-02-01T09:46:54;99088.00;;;6.50
68743;BMP180;55725;42.758;26.702;2023-02-01T09:48:37;99076.00;;;6.80
68743;BMP180;55725;42.758;26.702;2023-02-01T09:50:20;99096.00;;;7.30
68743;BMP180;55725;42.758;26.702;2023-02-01T09:52:02;99102.00;;;7.40
68743;BMP180;55725;42.758;26.702;2023-02-01T09:53:46;99112.00;;;7.10
68743;BMP180;55725;42.758;26.702;2023-02-01T09:59:43;99118.00;;;7.50
68743;BMP180;55725;42.758;26.702;2023-02-01T10:01:25;99093.00;;;7.90
68743;BMP180;55725;42.758;26.702;2023-02-01T10:03:08;99105.00;;;7.60
68743;BMP180;55725;42.758;26.702;2023-02-01T10:04:50;99101.00;;;7.60
68743;BMP180;55725;42.758;26.702;2023-02-01T10:06:37;99110.00;;;7.90
68743;BMP180;55725;42.758;26.702;2023-02-01T10:10:46;99102.00;;;7.70
68743;BMP180;55725;42.758;26.702;2023-02-01T10:19:44;99087.00;;;7.60
68743;BMP180;55725;42.758;26.702;2023-02-01T10:24:57;99208.00;;;7.80
68743;BMP180;55725;42.758;26.702;2023-02-01T10:26:44;99198.00;;;5.90
68743;BMP180;55725;42.758;26.702;2023-02-01T10:28:25;99196.00;;;6.90
68743;BMP180;55725;42.758;26.702;2023-02-01T10:30:14;99155.00;;;6.70
68743;BMP180;55725;42.758;26.702;2023-02-01T10:31:56;99185.00;;;6.70
68743;BMP180;55725;42.758;26.702;2023-02-01T10:33:51;99188.00;;;6.60
68743;BMP180;55725;42.758;26.702;2023-02-01T10:35:33;99187.00;;;5.90
68743;BMP180;55725;42.758;26.702;2023-02-01T10:38:59;99162.00;;;6.50
68743;BMP180;55725;42.758;26.702;2023-02-01T10:40:40;99181.00;;;6.30
68743;BMP180;55725;42.758;26.702;2023-02-01T10:42:22;99136.00;;;6.60